Time;durP1;ratioP1;P1;durP2;ratioP2;P2;SDS_P1;SDS_P2;PMS_P1;PMS_P2;Temp;Humidity;BMP_temperature;BMP_pressure;BME280_temperature;BME280_humidity;BME280_pressure;Samples;Min_cycle;Max_cycle;Signal;HPM_P1;HPM_P2
2023/08/17 00:01:52;;;;;;;6.88;2.70;;;;;;;22.54;56.83;93093.81;2074294;69;20590;-83
2023/08/17 00:04:18;;;;;;;7.30;2.55;;;;;;;22.43;56.97;93089.97;2071241;69;20178;-80
2023/08/17 00:06:44;;;;;;;6.25;2.53;;;;;;;22.25;57.95;93087.41;2075373;69;20159;-82
2023/08/17 00:09:09;;;;;;;10.60;2.63;;;;;;;22.36;57.75;93102.00;2070634;69;20179;-85
2023/08/17 00:11:36;;;;;;;3.47;2.33;;;;;;;22.26;56.62;93074.53;2067630;69;20205;-83
2023/08/17 00:14:03;;;;;;;4.28;2.47;;;;;;;22.20;55.36;93085.16;2070329;69;20144;-84
2023/08/17 00:16:29;;;;;;;3.42;2.55;;;;;;;22.28;55.18;93085.34;2073855;69;20156;-81
2023/08/17 00:18:57;;;;;;;3.72;2.60;;;;;;;22.27;56.55;93092.50;2070984;69;20171;-86
2023/08/17 00:21:24;;;;;;;4.95;2.50;;;;;;;22.32;56.11;93091.19;2069647;69;20143;-84
2023/08/17 00:23:51;;;;;;;2.42;1.90;;;;;;;22.21;55.62;93086.59;2067291;69;20207;-84
2023/08/17 00:26:17;;;;;;;5.45;2.40;;;;;;;22.50;54.32;93096.59;2070817;69;20175;-85
2023/08/17 00:28:44;;;;;;;3.40;2.08;;;;;;;22.48;56.18;93087.94;2070975;69;20684;-87
2023/08/17 00:31:10;;;;;;;5.00;2.65;;;;;;;22.28;57.25;93088.22;2072262;69;20541;-84
2023/08/17 00:33:35;;;;;;;5.55;3.00;;;;;;;21.94;58.31;93094.53;2074533;69;20604;-81
2023/08/17 00:36:01;;;;;;;6.13;2.53;;;;;;;22.03;58.32;93087.59;2071433;69;20144;-83
2023/08/17 00:38:27;;;;;;;3.65;2.20;;;;;;;22.20;57.12;93088.72;2074918;69;20180;-83
2023/08/17 00:40:54;;;;;;;3.05;2.58;;;;;;;21.84;58.13;93094.28;2071244;69;20194;-84
2023/08/17 00:43:20;;;;;;;5.82;2.33;;;;;;;22.04;57.33;93085.47;2074824;69;20179;-81
2023/08/17 00:45:47;;;;;;;2.60;2.28;;;;;;;22.04;56.55;93085.47;2071008;69;20148;-83
2023/08/17 00:48:14;;;;;;;4.90;2.38;;;;;;;22.11;56.05;93089.19;2071313;69;20507;-82
2023/08/17 00:50:40;;;;;;;2.45;2.00;;;;;;;22.01;56.00;93081.09;2071057;69;20277;-83
2023/08/17 00:53:06;;;;;;;2.42;1.90;;;;;;;21.88;55.46;93088.66;2071371;69;20191;-85
2023/08/17 00:55:33;;;;;;;3.38;2.20;;;;;;;22.07;54.42;93084.09;2068548;69;20164;-85
2023/08/17 00:57:59;;;;;;;3.40;2.30;;;;;;;22.06;55.38;93076.91;2070455;69;21011;-87
2023/08/17 01:00:27;;;;;;;5.60;2.78;;;;;;;21.85;56.86;93075.66;2074787;69;20223;-83
2023/08/17 01:02:53;;;;;;;6.15;2.95;;;;;;;21.70;58.24;93082.47;2071308;69;20159;-89
2023/08/17 01:05:19;;;;;;;4.95;2.70;;;;;;;21.76;57.78;93079.75;2074961;69;20504;-81
2023/08/17 01:07:45;;;;;;;3.13;2.40;;;;;;;21.66;58.49;93076.63;2074737;69;20215;-80
2023/08/17 01:10:10;;;;;;;3.47;2.10;;;;;;;21.58;58.79;93085.75;2071392;69;20156;-79
2023/08/17 01:12:44;;;;;;;3.78;2.10;;;;;;;21.52;58.42;93085.56;2074558;69;20167;-79
2023/08/17 01:15:31;;;;;;;3.78;2.17;;;;;;;21.39;58.21;93086.66;2070962;69;20191;-83
2023/08/17 01:18:22;;;;;;;4.95;3.00;;;;;;;21.39;58.65;93072.34;2068370;69;20227;-80
2023/08/17 01:20:49;;;;;;;5.45;2.70;;;;;;;21.36;59.34;93074.44;2068334;69;20491;-79
2023/08/17 01:23:15;;;;;;;5.65;2.70;;;;;;;21.29;59.61;93076.38;2075048;69;20135;-85
2023/08/17 01:25:40;;;;;;;4.18;2.30;;;;;;;21.28;60.06;93074.91;2072295;69;20198;-83
2023/08/17 01:28:07;;;;;;;4.22;2.40;;;;;;;21.15;60.35;93075.97;2065408;69;20248;-82
2023/08/17 01:31:03;;;;;;;3.58;2.30;;;;;;;21.09;60.86;93075.09;2069316;69;20152;-84
2023/08/17 01:33:43;;;;;;;5.00;2.50;;;;;;;21.00;61.11;93062.69;2071308;69;20191;-80
2023/08/17 01:36:37;;;;;;;6.90;2.45;;;;;;;21.02;60.56;93062.72;2070681;69;20603;-81
2023/08/17 01:39:04;;;;;;;9.90;2.35;;;;;;;20.93;61.47;93061.78;2073917;69;20152;-80
2023/08/17 01:41:31;;;;;;;4.07;2.30;;;;;;;20.99;60.54;93075.53;2071793;69;20167;-85
2023/08/17 01:43:59;;;;;;;5.50;2.38;;;;;;;20.84;60.49;93074.41;2069859;69;20145;-81
2023/08/17 01:46:28;;;;;;;4.18;2.38;;;;;;;20.83;61.21;93061.50;2073982;69;20140;-80
2023/08/17 01:48:56;;;;;;;5.43;2.10;;;;;;;20.74;61.41;93057.66;2071662;69;20139;-80
2023/08/17 01:51:22;;;;;;;6.93;3.10;;;;;;;20.63;61.63;93072.38;2070284;69;20591;-81
2023/08/17 01:53:49;;;;;;;10.48;3.08;;;;;;;20.45;62.27;93064.66;2072171;69;20189;-82
2023/08/17 01:56:14;;;;;;;7.13;3.65;;;;;;;20.50;62.13;93054.84;2070507;69;20156;-80
2023/08/17 01:58:40;;;;;;;6.15;3.58;;;;;;;20.49;61.89;93052.66;2070969;69;20163;-80
2023/08/17 02:01:06;;;;;;;4.40;3.05;;;;;;;20.51;61.74;93058.44;2070961;69;20566;-84
2023/08/17 02:03:32;;;;;;;7.15;3.00;;;;;;;20.60;61.60;93057.25;2069406;69;20157;-83
2023/08/17 02:06:01;;;;;;;5.35;2.75;;;;;;;20.59;61.41;93046.50;2070617;69;20625;-80
2023/08/17 02:08:27;;;;;;;8.43;3.30;;;;;;;20.55;61.57;93047.09;2068529;69;20144;-80
2023/08/17 02:10:53;;;;;;;3.78;2.15;;;;;;;20.56;61.08;93048.56;2074163;69;20564;-81
2023/08/17 02:13:20;;;;;;;3.20;2.00;;;;;;;20.50;61.09;93042.66;2073173;69;20533;-82
2023/08/17 02:15:47;;;;;;;6.97;3.10;;;;;;;20.33;61.77;93044.28;2071223;69;20147;-84
2023/08/17 02:18:13;;;;;;;5.50;3.38;;;;;;;20.40;60.25;93051.66;2072027;69;20148;-87
2023/08/17 02:20:38;;;;;;;3.30;2.80;;;;;;;20.21;62.29;93044.66;2069499;69;20576;-82
2023/08/17 02:23:04;;;;;;;8.60;3.20;;;;;;;20.17;62.91;93049.53;2068553;69;20525;-81
2023/08/17 02:25:35;;;;;;;9.88;3.20;;;;;;;20.24;61.86;93040.44;2068229;69;20610;-83
2023/08/17 02:28:04;;;;;;;5.13;3.00;;;;;;;20.10;62.79;93042.16;2067865;69;20670;-85
2023/08/17 02:30:30;;;;;;;7.00;3.03;;;;;;;19.99;63.32;93038.97;2068423;69;20164;-83
2023/08/17 02:33:08;;;;;;;5.07;2.83;;;;;;;20.08;63.30;93030.66;2071663;69;20155;-82
2023/08/17 02:35:33;;;;;;;6.95;2.88;;;;;;;20.12;62.14;93030.78;2071726;69;20238;-86
2023/08/17 02:37:59;;;;;;;7.60;3.00;;;;;;;20.10;62.55;93025.00;2070362;69;20650;-85
2023/08/17 02:40:24;;;;;;;6.20;2.40;;;;;;;20.05;62.44;93024.88;2068099;69;20251;-89
2023/08/17 02:42:50;;;;;;;4.40;2.80;;;;;;;19.34;65.84;93031.16;2068354;69;20136;-82
2023/08/17 02:45:16;;;;;;;7.40;3.20;;;;;;;19.67;63.87;93029.38;2071039;69;20222;-82
2023/08/17 02:47:41;;;;;;;4.85;3.10;;;;;;;19.68;63.58;93033.69;2071251;69;20215;-83
2023/08/17 02:50:07;;;;;;;4.32;2.90;;;;;;;19.69;63.86;93032.28;2070877;69;20148;-80
2023/08/17 02:52:34;;;;;;;8.25;2.92;;;;;;;19.73;63.96;93029.56;2071057;69;20144;-81
2023/08/17 02:54:59;;;;;;;6.28;2.67;;;;;;;19.83;63.04;93020.59;2071679;69;20174;-80
2023/08/17 02:57:25;;;;;;;5.60;2.90;;;;;;;19.74;63.70;93028.16;2071141;69;20148;-81
2023/08/17 02:59:53;;;;;;;6.35;3.38;;;;;;;19.67;63.46;93026.53;2071734;69;20144;-83
2023/08/17 03:02:18;;;;;;;5.00;3.08;;;;;;;19.63;64.09;93026.41;2071086;69;20140;-82
2023/08/17 03:04:44;;;;;;;6.38;3.30;;;;;;;19.71;63.46;93030.25;2070638;69;20206;-89
2023/08/17 03:07:12;;;;;;;5.88;3.00;;;;;;;19.68;63.24;93028.72;2071614;69;20545;-87
2023/08/17 03:09:37;;;;;;;6.38;3.20;;;;;;;19.67;63.17;93032.25;2069009;69;20193;-89
2023/08/17 03:12:03;;;;;;;6.68;3.15;;;;;;;19.62;63.51;93037.09;2068425;69;20148;-89
2023/08/17 03:14:29;;;;;;;6.30;3.20;;;;;;;19.64;62.62;93036.41;2068256;69;20251;-83
2023/08/17 03:16:54;;;;;;;6.57;3.35;;;;;;;19.43;64.41;93032.88;2071090;69;20140;-81
2023/08/17 03:19:21;;;;;;;3.40;2.63;;;;;;;19.50;63.88;93042.38;2071581;69;20168;-81
2023/08/17 03:21:46;;;;;;;5.35;2.80;;;;;;;19.31;63.91;93012.47;2070921;69;20222;-82
2023/08/17 03:24:12;;;;;;;8.77;3.10;;;;;;;19.46;64.00;93030.81;2068342;69;20233;-82
2023/08/17 03:26:37;;;;;;;7.93;3.20;;;;;;;19.41;64.79;93035.66;2067715;69;20143;-81
2023/08/17 03:29:03;;;;;;;5.75;2.83;;;;;;;19.43;64.53;93035.72;2067894;69;20598;-84
2023/08/17 03:31:29;;;;;;;8.18;3.03;;;;;;;19.41;64.50;93029.22;2067977;69;20149;-85
2023/08/17 03:33:55;;;;;;;5.10;3.13;;;;;;;19.18;65.15;93037.03;2067691;69;20143;-83
2023/08/17 03:36:21;;;;;;;6.97;2.88;;;;;;;19.17;64.77;93026.28;2067762;69;20546;-86
2023/08/17 03:38:47;;;;;;;7.70;2.60;;;;;;;19.24;65.02;93036.50;2068032;69;20543;-81
2023/08/17 03:41:14;;;;;;;6.72;2.85;;;;;;;19.25;65.18;93041.56;2069155;69;20516;-87
2023/08/17 03:43:41;;;;;;;8.38;3.38;;;;;;;19.21;64.79;93029.28;2067516;69;20228;-82
2023/08/17 03:46:06;;;;;;;6.50;2.63;;;;;;;19.29;64.28;93038.84;2070837;69;20150;-82
2023/08/17 03:48:33;;;;;;;6.95;3.03;;;;;;;19.30;64.58;93031.00;2070908;69;20229;-81
2023/08/17 03:51:01;;;;;;;5.45;2.90;;;;;;;19.12;64.96;93031.13;2071627;69;20600;-81
2023/08/17 03:53:27;;;;;;;3.30;2.63;;;;;;;19.16;65.60;93024.81;2071509;69;20562;-81
2023/08/17 03:55:52;;;;;;;6.78;3.25;;;;;;;18.73;65.96;93031.88;2071005;69;20658;-80
2023/08/17 03:58:20;;;;;;;8.15;3.20;;;;;;;18.59;66.66;93034.19;2070988;69;20152;-83
2023/08/17 04:00:50;;;;;;;5.60;3.05;;;;;;;18.88;64.86;93036.72;2067599;69;20214;-81
2023/08/17 04:03:17;;;;;;;5.57;2.85;;;;;;;18.75;66.18;93040.50;2067822;69;20214;-81
2023/08/17 04:05:42;;;;;;;5.50;2.45;;;;;;;18.86;65.82;93025.22;2068801;69;20159;-81
2023/08/17 04:08:08;;;;;;;5.07;2.83;;;;;;;18.99;65.27;93038.50;2068930;69;20145;-86
2023/08/17 04:10:34;;;;;;;5.80;2.97;;;;;;;18.99;64.50;93043.50;2070816;69;20175;-80
2023/08/17 04:12:59;;;;;;;5.32;3.00;;;;;;;18.99;65.06;93040.63;2071496;69;20179;-83
2023/08/17 04:15:25;;;;;;;5.53;2.85;;;;;;;19.01;65.29;93050.00;2071614;69;20505;-86
2023/08/17 04:17:50;;;;;;;7.72;2.88;;;;;;;19.04;64.93;93050.81;2072101;69;20156;-86
2023/08/17 04:20:21;;;;;;;7.68;2.80;;;;;;;19.03;65.07;93055.78;2068175;69;20145;-81
2023/08/17 04:22:47;;;;;;;5.10;2.80;;;;;;;19.08;64.83;93044.50;2068821;69;20186;-83
2023/08/17 04:25:13;;;;;;;7.88;2.90;;;;;;;19.02;65.63;93048.63;2065077;69;20160;-84
2023/08/17 04:27:39;;;;;;;3.95;3.00;;;;;;;18.91;65.59;93058.19;2068053;69;20164;-81
2023/08/17 04:30:05;;;;;;;6.43;2.65;;;;;;;18.85;65.31;93052.28;2069375;69;20148;-83
2023/08/17 04:32:39;;;;;;;6.80;3.08;;;;;;;19.01;64.97;93052.88;2071483;69;20179;-86
2023/08/17 04:35:05;;;;;;;5.07;2.95;;;;;;;19.09;64.41;93051.69;2068873;69;20507;-88
2023/08/17 04:37:31;;;;;;;5.40;2.83;;;;;;;19.15;64.16;93046.94;2068740;69;20145;-83
2023/08/17 04:39:57;;;;;;;6.32;2.70;;;;;;;19.14;64.28;93058.97;2067746;69;20141;-87
2023/08/17 04:42:24;;;;;;;4.25;2.60;;;;;;;19.18;63.94;93045.59;2065316;69;20566;-83
2023/08/17 04:44:50;;;;;;;3.38;2.83;;;;;;;19.21;63.17;93049.25;2068084;69;20600;-86
2023/08/17 04:47:16;;;;;;;4.70;2.70;;;;;;;19.17;64.13;93046.97;2068755;69;20143;-85
2023/08/17 04:49:42;;;;;;;3.63;2.72;;;;;;;19.16;63.84;93039.81;2070910;69;20155;-84
2023/08/17 04:52:09;;;;;;;4.30;2.97;;;;;;;19.16;63.90;93050.50;2071854;69;20148;-89
2023/08/17 04:54:36;;;;;;;3.85;2.65;;;;;;;19.19;63.84;93052.03;2072143;69;20656;-86
2023/08/17 04:57:03;;;;;;;5.00;2.95;;;;;;;19.04;65.15;93062.22;2068828;69;20511;-85
2023/08/17 04:59:31;;;;;;;6.43;2.92;;;;;;;19.20;65.59;93070.63;2071446;69;20175;-83
2023/08/17 05:01:56;;;;;;;7.57;3.28;;;;;;;19.19;64.58;93069.88;2071596;69;20187;-82
2023/08/17 05:04:22;;;;;;;8.13;3.17;;;;;;;19.22;63.91;93073.53;2068457;69;20249;-84
2023/08/17 05:06:47;;;;;;;8.98;3.30;;;;;;;19.16;64.54;93067.63;2071400;69;20617;-82
2023/08/17 05:09:14;;;;;;;9.65;3.60;;;;;;;18.82;65.43;93062.16;2070666;69;20581;-84
2023/08/17 05:11:40;;;;;;;8.60;3.22;;;;;;;18.94;65.27;93068.28;2068057;69;20175;-84
2023/08/17 05:14:06;;;;;;;8.65;2.83;;;;;;;18.98;66.03;93067.72;2068704;69;20156;-85
2023/08/17 05:16:31;;;;;;;4.50;2.92;;;;;;;18.89;66.40;93065.97;2069557;69;20167;-86
2023/08/17 05:18:59;;;;;;;6.47;3.30;;;;;;;19.02;65.80;93065.00;2071411;69;20168;-86
2023/08/17 05:21:25;;;;;;;5.68;3.60;;;;;;;18.99;66.06;93064.19;2069949;69;20180;-85
2023/08/17 05:23:51;;;;;;;9.80;4.90;;;;;;;18.98;66.00;93067.72;2069668;69;20218;-85
2023/08/17 05:26:17;;;;;;;7.93;3.92;;;;;;;18.96;65.88;93056.22;2068788;69;20160;-85
2023/08/17 05:28:44;;;;;;;7.93;3.58;;;;;;;19.06;65.15;93062.31;2071622;69;20534;-85
2023/08/17 05:31:10;;;;;;;10.40;3.58;;;;;;;18.92;66.13;93067.47;2070903;69;20172;-85
2023/08/17 05:33:42;;;;;;;6.55;4.28;;;;;;;19.09;64.76;93066.66;2068410;69;20144;-86
2023/08/17 05:36:09;;;;;;;8.65;4.07;;;;;;;18.98;65.64;93067.72;2068225;69;20180;-87
2023/08/17 05:38:35;;;;;;;6.55;3.50;;;;;;;18.97;66.43;93069.13;2068009;69;20514;-84
2023/08/17 05:41:01;;;;;;;6.03;3.55;;;;;;;18.90;66.40;93073.84;2068475;69;20165;-85
2023/08/17 05:43:27;;;;;;;8.55;3.25;;;;;;;18.94;66.91;93064.72;2071566;69;20164;-84
2023/08/17 05:45:53;;;;;;;6.78;3.63;;;;;;;18.93;66.31;93064.00;2069074;69;20152;-85
2023/08/17 05:48:19;;;;;;;11.50;3.90;;;;;;;19.05;66.06;93069.38;2070720;69;20221;-85
2023/08/17 05:50:45;;;;;;;9.43;3.80;;;;;;;19.07;66.04;93065.88;2071654;69;20585;-85
2023/08/17 05:53:10;;;;;;;4.85;3.10;;;;;;;19.02;66.94;93073.56;2069047;69;20610;-86
2023/08/17 05:55:36;;;;;;;4.68;3.00;;;;;;;19.15;66.45;93069.75;2070573;69;20589;-84
2023/08/17 05:58:02;;;;;;;7.35;2.83;;;;;;;19.16;66.96;93071.22;2070765;69;20599;-86
2023/08/17 06:00:28;;;;;;;3.78;2.55;;;;;;;19.24;65.62;93065.78;2072119;69;20172;-84
2023/08/17 06:02:55;;;;;;;10.40;2.50;;;;;;;19.36;64.35;93062.59;2068857;69;20219;-84
2023/08/17 06:05:25;;;;;;;6.68;3.60;;;;;;;19.26;65.57;93056.56;2075464;69;20224;-83
2023/08/17 06:07:50;;;;;;;5.38;3.17;;;;;;;19.37;65.51;93046.94;2068948;69;20174;-84
2023/08/17 06:10:16;;;;;;;6.22;3.10;;;;;;;19.59;66.58;93069.78;2071865;69;20144;-85
2023/08/17 06:12:41;;;;;;;4.63;2.95;;;;;;;19.74;64.91;93068.88;2072426;69;20588;-84
2023/08/17 06:15:08;;;;;;;7.40;4.03;;;;;;;19.52;65.56;93073.84;2073123;69;20592;-87
2023/08/17 06:17:33;;;;;;;8.68;3.90;;;;;;;19.62;63.72;93065.66;2072375;69;20609;-89
2023/08/17 06:19:59;;;;;;;5.70;4.00;;;;;;;19.80;64.63;93068.38;2072559;69;20144;-86
2023/08/17 06:22:25;;;;;;;8.13;4.07;;;;;;;19.93;64.32;93058.81;2071246;69;20202;-86
2023/08/17 06:24:51;;;;;;;7.97;4.40;;;;;;;19.92;64.85;93062.31;2075219;69;20677;-87
2023/08/17 06:27:17;;;;;;;7.70;4.15;;;;;;;19.82;65.45;93071.28;2072018;69;20167;-87
2023/08/17 06:29:43;;;;;;;14.60;4.05;;;;;;;20.02;64.52;93065.47;2073814;69;20514;-85
2023/08/17 06:32:09;;;;;;;10.02;4.10;;;;;;;20.11;62.57;93060.75;2073673;69;20187;-83
2023/08/17 06:34:34;;;;;;;7.07;3.95;;;;;;;20.21;63.12;93058.22;2074106;69;20152;-87
2023/08/17 06:37:03;;;;;;;10.05;3.60;;;;;;;20.25;63.98;93056.22;2073905;69;20651;-86
2023/08/17 06:39:29;;;;;;;10.10;3.38;;;;;;;19.97;64.28;93055.31;2076803;69;20589;-85
2023/08/17 06:41:55;;;;;;;7.18;3.13;;;;;;;20.24;64.21;93059.72;2078506;69;20143;-84
2023/08/17 06:44:20;;;;;;;8.38;2.85;;;;;;;20.18;64.24;93050.97;2078668;69;20155;-86
2023/08/17 06:46:47;;;;;;;4.22;2.63;;;;;;;20.26;65.44;93054.81;2078555;69;20143;-84
2023/08/17 06:49:12;;;;;;;5.75;2.45;;;;;;;20.34;64.89;93060.03;2076260;69;20202;-80
2023/08/17 06:51:38;;;;;;;6.65;2.30;;;;;;;20.34;63.24;93059.31;2074691;69;20638;-82
2023/08/17 06:54:06;;;;;;;4.70;2.33;;;;;;;20.36;63.99;93057.25;2070113;69;20164;-84
2023/08/17 06:56:32;;;;;;;12.32;2.72;;;;;;;20.37;64.47;93052.97;2071808;69;20151;-82
2023/08/17 06:58:57;;;;;;;6.18;2.40;;;;;;;20.64;63.47;93059.50;2073856;69;20244;-81
2023/08/17 07:01:23;;;;;;;4.25;2.50;;;;;;;20.81;63.17;93055.72;2071355;69;20151;-82
2023/08/17 07:03:49;;;;;;;4.85;2.30;;;;;;;21.00;63.32;93059.81;2071405;69;20156;-82
2023/08/17 07:06:14;;;;;;;6.55;2.28;;;;;;;21.14;63.26;93053.75;2071401;69;20226;-82
2023/08/17 07:08:40;;;;;;;4.60;2.40;;;;;;;21.27;61.88;93059.13;2071575;69;20164;-81
2023/08/17 07:11:06;;;;;;;5.47;2.47;;;;;;;21.19;61.01;93052.47;2071687;69;20235;-82
2023/08/17 07:13:31;;;;;;;4.80;2.40;;;;;;;21.56;60.15;93057.75;2068332;69;20148;-84
2023/08/17 07:15:59;;;;;;;4.65;2.30;;;;;;;21.86;59.56;93053.50;2071914;69;20181;-82
2023/08/17 07:18:24;;;;;;;5.15;2.20;;;;;;;21.99;61.50;93058.09;2071694;69;20152;-81
2023/08/17 07:20:50;;;;;;;4.18;2.00;;;;;;;22.13;60.84;93052.75;2068198;69;20195;-81
2023/08/17 07:23:17;;;;;;;5.35;2.40;;;;;;;22.45;59.74;93060.59;2068789;69;20563;-80
2023/08/17 07:25:44;;;;;;;4.18;2.47;;;;;;;22.63;59.67;93054.53;2073759;69;20230;-84
2023/08/17 07:28:09;;;;;;;4.38;2.28;;;;;;;22.80;59.04;93059.22;2071726;69;20595;-82
2023/08/17 07:30:35;;;;;;;6.50;2.53;;;;;;;22.93;55.01;93055.22;2074410;69;20155;-82
2023/08/17 07:33:01;;;;;;;5.97;2.67;;;;;;;23.13;54.34;93057.75;2073892;69;20252;-81
2023/08/17 07:35:26;;;;;;;7.22;2.22;;;;;;;23.56;56.78;93062.19;2074599;69;20525;-82
2023/08/17 07:37:53;;;;;;;3.15;2.15;;;;;;;23.80;53.25;93050.41;2072130;69;20226;-83
2023/08/17 07:40:18;;;;;;;3.08;2.40;;;;;;;23.95;56.40;93059.25;2074781;69;20621;-83
2023/08/17 07:42:46;;;;;;;3.17;2.50;;;;;;;24.20;53.99;93055.38;2075389;69;20152;-83
2023/08/17 07:45:11;;;;;;;4.00;2.50;;;;;;;24.36;51.50;93057.75;2074603;69;20225;-82
2023/08/17 07:47:37;;;;;;;4.80;2.50;;;;;;;24.41;49.86;93042.03;2074882;69;20132;-81
2023/08/17 07:50:04;;;;;;;6.68;2.40;;;;;;;24.47;51.38;93042.13;2074812;69;20261;-81
2023/08/17 07:52:29;;;;;;;4.72;2.20;;;;;;;24.91;50.98;93049.19;2074798;69;20174;-83
2023/08/17 07:54:55;;;;;;;5.82;2.20;;;;;;;24.95;48.73;93046.34;2074836;69;20148;-81
2023/08/17 07:57:20;;;;;;;3.92;2.28;;;;;;;25.10;47.89;93053.75;2074889;69;20194;-82
2023/08/17 07:59:46;;;;;;;4.00;2.17;;;;;;;25.37;47.35;93045.44;2075130;69;20183;-82
2023/08/17 08:02:12;;;;;;;2.97;2.45;;;;;;;25.66;46.47;93052.97;2075389;69;20148;-82
2023/08/17 08:04:38;;;;;;;4.05;2.00;;;;;;;25.70;46.17;93049.38;2071967;69;20160;-82
2023/08/17 08:07:04;;;;;;;5.05;2.45;;;;;;;26.04;47.03;93054.78;2073575;69;20159;-81
2023/08/17 08:09:29;;;;;;;3.20;2.30;;;;;;;26.41;46.37;93041.34;2071834;69;20136;-82
2023/08/17 08:11:55;;;;;;;5.70;2.30;;;;;;;26.67;44.98;93043.72;2071971;69;20236;-82
2023/08/17 08:14:22;;;;;;;3.35;2.10;;;;;;;26.83;42.85;93040.91;2071979;69;20160;-83
2023/08/17 08:16:48;;;;;;;2.90;2.00;;;;;;;27.07;43.25;93048.97;2069121;69;20579;-81
2023/08/17 08:19:13;;;;;;;4.93;2.25;;;;;;;27.34;43.68;93044.03;2075349;69;20136;-82
2023/08/17 08:21:40;;;;;;;2.63;2.10;;;;;;;27.51;41.79;93041.22;2075368;69;20151;-82
2023/08/17 08:24:06;;;;;;;3.30;2.10;;;;;;;27.54;41.72;93042.66;2075332;69;20605;-82
2023/08/17 08:26:32;;;;;;;4.47;2.22;;;;;;;27.75;40.25;93029.00;2071915;69;20146;-82
2023/08/17 08:29:00;;;;;;;4.60;2.00;;;;;;;28.08;40.42;93032.63;2075389;69;20617;-82
2023/08/17 08:31:26;;;;;;;2.40;1.85;;;;;;;28.31;38.98;93042.75;2071983;69;20143;-80
2023/08/17 08:33:52;;;;;;;3.50;2.05;;;;;;;28.76;39.37;93034.06;2075456;69;20232;-82
2023/08/17 08:36:18;;;;;;;2.03;1.83;;;;;;;28.94;37.47;93033.28;2074639;69;20195;-81
2023/08/17 08:38:44;;;;;;;3.63;1.80;;;;;;;28.69;37.06;93029.72;2071863;69;20495;-80
2023/08/17 08:41:11;;;;;;;2.08;1.88;;;;;;;28.41;38.60;93023.97;2072022;69;20172;-80
2023/08/17 08:43:38;;;;;;;5.05;2.00;;;;;;;29.16;38.23;93018.03;2071901;69;20147;-81
2023/08/17 08:46:04;;;;;;;2.35;1.95;;;;;;;29.66;37.84;93021.44;2071863;69;20148;-80
2023/08/17 08:48:31;;;;;;;2.80;1.70;;;;;;;29.91;36.47;93010.38;2065698;69;20186;-80
2023/08/17 08:51:00;;;;;;;3.42;1.83;;;;;;;30.03;36.91;93011.03;2071729;69;20132;-80
2023/08/17 08:53:37;;;;;;;2.00;1.67;;;;;;;30.31;36.48;93012.28;2068489;69;20214;-80
2023/08/17 08:56:03;;;;;;;4.13;2.00;;;;;;;30.95;35.85;93012.41;2071858;69;20137;-80
2023/08/17 08:58:31;;;;;;;2.80;2.10;;;;;;;30.34;34.88;93013.72;2071846;69;20148;-81
2023/08/17 09:00:57;;;;;;;2.80;1.83;;;;;;;30.30;34.45;93011.56;2071840;69;20152;-80
2023/08/17 09:03:25;;;;;;;2.20;2.00;;;;;;;30.08;35.23;93006.63;2068541;69;20152;-81
2023/08/17 09:05:52;;;;;;;2.60;1.90;;;;;;;31.34;34.78;93006.91;2071627;69;20124;-81
2023/08/17 09:08:23;;;;;;;4.82;2.20;;;;;;;31.00;35.24;93005.09;2072108;69;20163;-81
2023/08/17 09:10:49;;;;;;;2.17;1.70;;;;;;;30.52;34.86;92999.03;2071905;69;20223;-81
2023/08/17 09:13:15;;;;;;;2.45;1.90;;;;;;;30.91;36.05;92998.66;2071847;69;20136;-80
2023/08/17 09:15:41;;;;;;;2.53;1.60;;;;;;;31.37;34.21;92999.59;2071771;69;20179;-81
2023/08/17 09:18:09;;;;;;;2.78;1.90;;;;;;;31.47;33.48;92990.72;2068635;69;20136;-81
2023/08/17 09:20:44;;;;;;;4.18;1.90;;;;;;;32.16;34.59;92994.84;2065777;69;20136;-81
2023/08/17 09:23:21;;;;;;;3.72;2.00;;;;;;;32.06;33.58;92992.81;2071904;69;20144;-82
2023/08/17 09:25:48;;;;;;;2.30;1.90;;;;;;;32.31;31.85;92995.34;2071872;69;20190;-82
2023/08/17 09:28:16;;;;;;;2.40;1.80;;;;;;;31.36;34.13;92981.41;2071893;69;20150;-80
2023/08/17 09:31:09;;;;;;;4.80;1.98;;;;;;;32.38;32.46;92985.75;2071771;69;20207;-81
2023/08/17 09:33:35;;;;;;;2.17;1.63;;;;;;;31.62;32.08;92974.53;2070989;69;20148;-82
2023/08/17 09:36:02;;;;;;;3.05;1.70;;;;;;;32.62;31.54;92972.22;2071744;69;20783;-78
2023/08/17 09:38:27;;;;;;;2.92;1.60;;;;;;;32.93;31.51;92971.69;2074890;69;20148;-80
2023/08/17 09:40:53;;;;;;;2.63;1.63;;;;;;;33.28;31.53;92972.44;2075234;69;20147;-82
2023/08/17 09:43:25;;;;;;;2.10;1.80;;;;;;;34.02;30.85;92971.59;2075265;69;20534;-80
2023/08/17 09:45:51;;;;;;;3.70;1.95;;;;;;;34.59;30.55;92964.38;2075217;69;20147;-80
2023/08/17 09:48:18;;;;;;;2.65;1.90;;;;;;;34.64;29.95;92959.88;2075234;69;20148;-81
2023/08/17 09:50:47;;;;;;;3.10;1.75;;;;;;;34.09;29.21;92946.63;2075187;69;20143;-80
2023/08/17 09:53:17;;;;;;;2.08;1.63;;;;;;;34.53;29.55;92955.75;2075211;69;20144;-82
2023/08/17 09:55:44;;;;;;;2.55;1.50;;;;;;;34.56;29.93;92953.50;2075162;69;20151;-79
2023/08/17 09:58:14;;;;;;;4.28;1.90;;;;;;;34.97;28.94;92949.53;2075154;69;20187;-80
2023/08/17 10:00:50;;;;;;;5.97;1.77;;;;;;;34.95;31.50;92944.41;2075242;69;20183;-80
2023/08/17 10:03:18;;;;;;;3.10;1.85;;;;;;;35.30;29.71;92938.31;2071853;69;20171;-82
2023/08/17 10:05:46;;;;;;;2.47;1.92;;;;;;;35.82;29.69;92940.47;2069291;69;20150;-81
2023/08/17 10:08:12;;;;;;;2.90;1.60;;;;;;;35.62;29.88;92941.81;2073238;69;20257;-81
2023/08/17 10:10:44;;;;;;;2.10;1.90;;;;;;;35.83;27.86;92936.03;2075030;69;20139;-80
2023/08/17 10:13:19;;;;;;;2.65;1.63;;;;;;;37.30;26.75;92940.66;2075120;69;20525;-80
2023/08/17 10:15:53;;;;;;;1.60;1.30;;;;;;;37.75;25.86;92941.19;2071960;69;20143;-80
2023/08/17 10:18:38;;;;;;;3.60;1.65;;;;;;;35.52;25.82;92927.50;2075110;69;20147;-79
2023/08/17 10:21:16;;;;;;;4.25;1.80;;;;;;;35.34;26.71;92922.88;2075151;69;20152;-79
2023/08/17 10:23:44;;;;;;;1.45;1.35;;;;;;;37.52;26.88;92926.66;2074748;69;20152;-80
2023/08/17 10:26:10;;;;;;;4.00;1.55;;;;;;;37.33;25.41;92924.38;2075159;69;20160;-81
2023/08/17 10:28:37;;;;;;;2.67;1.42;;;;;;;37.30;24.31;92934.06;2071813;69;20147;-80
2023/08/17 10:31:03;;;;;;;2.97;1.50;;;;;;;36.43;27.02;92914.34;2071804;69;20582;-80
2023/08/17 10:33:29;;;;;;;2.67;1.85;;;;;;;38.35;25.73;92916.81;2070044;69;20595;-80
2023/08/17 10:35:56;;;;;;;2.08;1.88;;;;;;;39.43;25.01;92923.94;2073688;69;20140;-83
2023/08/17 10:38:23;;;;;;;1.80;1.40;;;;;;;39.08;22.95;92919.56;2075163;69;20155;-80
2023/08/17 10:41:10;;;;;;;7.35;1.90;;;;;;;38.31;24.05;92922.88;2075092;69;20136;-80
2023/08/17 10:43:55;;;;;;;5.63;1.80;;;;;;;39.02;23.10;92916.19;2071874;69;20602;-80
2023/08/17 10:46:21;;;;;;;2.05;1.60;;;;;;;41.03;22.26;92919.97;2075092;69;20174;-80
2023/08/17 10:48:46;;;;;;;2.33;1.70;;;;;;;40.40;21.78;92909.78;2071760;69;20147;-80
2023/08/17 10:51:16;;;;;;;2.50;1.70;;;;;;;41.95;20.45;92918.06;2075068;69;20135;-81
2023/08/17 10:53:45;;;;;;;5.13;1.60;;;;;;;43.37;19.87;92912.75;2075175;69;20155;-81
2023/08/17 10:56:13;;;;;;;3.55;1.70;;;;;;;41.21;20.82;92901.31;2071710;69;20144;-84
2023/08/17 10:58:41;;;;;;;4.55;1.77;;;;;;;40.70;22.13;92895.06;2075056;69;20665;-82
2023/08/17 11:01:07;;;;;;;4.25;1.73;;;;;;;41.88;21.35;92900.66;2075051;69;20128;-80
2023/08/17 11:03:33;;;;;;;2.13;1.33;;;;;;;43.08;19.40;92892.34;2071139;69;20225;-81
2023/08/17 11:06:14;;;;;;;6.05;1.98;;;;;;;42.99;19.67;92900.28;2070408;69;20201;-81
2023/08/17 11:08:51;;;;;;;5.18;1.70;;;;;;;44.35;20.26;92900.69;2071406;69;20673;-80
2023/08/17 11:11:19;;;;;;;7.10;1.90;;;;;;;46.03;18.69;92892.25;2065417;69;20144;-82
2023/08/17 11:13:48;;;;;;;3.70;1.60;;;;;;;45.08;17.43;92888.47;2071743;69;20137;-82
2023/08/17 11:16:16;;;;;;;3.05;1.52;;;;;;;46.84;17.20;92885.56;2071627;69;20148;-80
2023/08/17 11:18:42;;;;;;;4.53;1.70;;;;;;;47.02;17.47;92874.53;2071603;69;20136;-80
2023/08/17 11:21:10;;;;;;;3.22;1.30;;;;;;;47.95;17.45;92875.47;2071648;69;20121;-80
2023/08/17 11:23:37;;;;;;;5.70;1.42;;;;;;;47.47;17.25;92874.06;2068167;69;20174;-81
2023/08/17 11:26:04;;;;;;;4.05;1.40;;;;;;;50.20;15.46;92874.53;2071564;69;20132;-81
2023/08/17 11:28:40;;;;;;;8.25;1.70;;;;;;;48.63;15.15;92867.03;2071825;69;20175;-83
2023/08/17 11:31:09;;;;;;;5.03;1.40;;;;;;;48.62;15.47;92854.38;2068208;69;20137;-81
2023/08/17 11:33:37;;;;;;;3.85;1.45;;;;;;;46.91;16.52;92850.03;2071330;69;20707;-79
2023/08/17 11:36:22;;;;;;;2.55;1.52;;;;;;;47.24;16.14;92846.00;2062426;69;20182;-81